sensor_id;sensor_type;location;lat;lon;timestamp;P1;durP1;ratioP1;P2;durP2;ratioP2
17151;SDS011;8691;50.828;4.700;2022-11-15T00:00:50;20.73;;;18.53;;
17151;SDS011;8691;50.828;4.700;2022-11-15T00:03:18;20.53;;;15.00;;
17151;SDS011;8691;50.828;4.700;2022-11-15T00:05:45;20.62;;;18.42;;
17151;SDS011;8691;50.828;4.700;2022-11-15T00:08:13;19.93;;;17.53;;
17151;SDS011;8691;50.828;4.700;2022-11-15T00:10:40;20.20;;;18.00;;
17151;SDS011;8691;50.828;4.700;2022-11-15T00:13:07;18.33;;;15.13;;
17151;SDS011;8691;50.828;4.700;2022-11-15T00:15:37;15.67;;;13.97;;
17151;SDS011;8691;50.828;4.700;2022-11-15T00:18:09;20.33;;;18.12;;
17151;SDS011;8691;50.828;4.700;2022-11-15T00:20:33;21.33;;;18.65;;
17151;SDS011;8691;50.828;4.700;2022-11-15T00:23:00;21.07;;;18.83;;
17151;SDS011;8691;50.828;4.700;2022-11-15T00:25:27;19.83;;;17.73;;
17151;SDS011;8691;50.828;4.700;2022-11-15T00:27:56;20.00;;;17.90;;
17151;SDS011;8691;50.828;4.700;2022-11-15T00:30:22;22.02;;;18.80;;
17151;SDS011;8691;50.828;4.700;2022-11-15T00:32:49;18.53;;;14.87;;
17151;SDS011;8691;50.828;4.700;2022-11-15T00:35:16;20.45;;;17.62;;
17151;SDS011;8691;50.828;4.700;2022-11-15T00:37:42;21.40;;;19.10;;
17151;SDS011;8691;50.828;4.700;2022-11-15T00:40:11;21.52;;;19.00;;
17151;SDS011;8691;50.828;4.700;2022-11-15T00:42:38;21.12;;;18.27;;
17151;SDS011;8691;50.828;4.700;2022-11-15T00:45:04;20.30;;;15.13;;
17151;SDS011;8691;50.828;4.700;2022-11-15T00:47:31;21.27;;;17.92;;
17151;SDS011;8691;50.828;4.700;2022-11-15T00:49:58;18.50;;;14.37;;
17151;SDS011;8691;50.828;4.700;2022-11-15T00:52:25;21.35;;;18.65;;
17151;SDS011;8691;50.828;4.700;2022-11-15T00:54:52;20.75;;;18.65;;
17151;SDS011;8691;50.828;4.700;2022-11-15T00:57:19;21.35;;;19.00;;
17151;SDS011;8691;50.828;4.700;2022-11-15T00:59:46;20.03;;;17.93;;
17151;SDS011;8691;50.828;4.700;2022-11-15T01:02:14;20.38;;;18.17;;
17151;SDS011;8691;50.828;4.700;2022-11-15T01:04:41;19.90;;;17.85;;
17151;SDS011;8691;50.828;4.700;2022-11-15T01:07:08;19.90;;;17.73;;
17151;SDS011;8691;50.828;4.700;2022-11-15T01:09:35;19.30;;;17.30;;
17151;SDS011;8691;50.828;4.700;2022-11-15T01:12:03;19.88;;;17.85;;
17151;SDS011;8691;50.828;4.700;2022-11-15T01:14:30;19.53;;;17.50;;
17151;SDS011;8691;50.828;4.700;2022-11-15T01:16:57;20.77;;;17.87;;
17151;SDS011;8691;50.828;4.700;2022-11-15T01:19:23;19.35;;;17.20;;
17151;SDS011;8691;50.828;4.700;2022-11-15T01:21:50;16.27;;;14.37;;
17151;SDS011;8691;50.828;4.700;2022-11-15T01:24:17;19.60;;;16.80;;
17151;SDS011;8691;50.828;4.700;2022-11-15T01:26:44;20.17;;;17.90;;
17151;SDS011;8691;50.828;4.700;2022-11-15T01:29:11;20.12;;;18.02;;
17151;SDS011;8691;50.828;4.700;2022-11-15T01:31:38;20.62;;;18.42;;
17151;SDS011;8691;50.828;4.700;2022-11-15T01:34:06;21.03;;;17.93;;
17151;SDS011;8691;50.828;4.700;2022-11-15T01:36:33;22.20;;;19.00;;
17151;SDS011;8691;50.828;4.700;2022-11-15T01:39:00;22.70;;;18.73;;
17151;SDS011;8691;50.828;4.700;2022-11-15T01:41:27;23.97;;;18.83;;
17151;SDS011;8691;50.828;4.700;2022-11-15T01:43:57;22.67;;;15.17;;
17151;SDS011;8691;50.828;4.700;2022-11-15T01:46:25;20.58;;;18.10;;
17151;SDS011;8691;50.828;4.700;2022-11-15T01:48:57;21.77;;;18.45;;
17151;SDS011;8691;50.828;4.700;2022-11-15T01:51:23;20.73;;;18.50;;
17151;SDS011;8691;50.828;4.700;2022-11-15T01:53:50;23.15;;;19.67;;
17151;SDS011;8691;50.828;4.700;2022-11-15T01:56:18;21.02;;;19.00;;
17151;SDS011;8691;50.828;4.700;2022-11-15T01:58:44;18.73;;;15.20;;
17151;SDS011;8691;50.828;4.700;2022-11-15T02:01:12;22.48;;;20.10;;
17151;SDS011;8691;50.828;4.700;2022-11-15T02:03:43;21.93;;;19.63;;
17151;SDS011;8691;50.828;4.700;2022-11-15T02:06:14;17.47;;;15.57;;
17151;SDS011;8691;50.828;4.700;2022-11-15T02:08:41;21.58;;;19.27;;
17151;SDS011;8691;50.828;4.700;2022-11-15T02:11:07;19.03;;;15.43;;
17151;SDS011;8691;50.828;4.700;2022-11-15T02:13:34;22.73;;;19.50;;
17151;SDS011;8691;50.828;4.700;2022-11-15T02:16:18;23.52;;;18.83;;
17151;SDS011;8691;50.828;4.700;2022-11-15T02:18:52;18.83;;;15.07;;
17151;SDS011;8691;50.828;4.700;2022-11-15T02:21:22;22.10;;;19.10;;
17151;SDS011;8691;50.828;4.700;2022-11-15T02:32:00;21.77;;;19.42;;
17151;SDS011;8691;50.828;4.700;2022-11-15T02:37:25;21.75;;;19.45;;
17151;SDS011;8691;50.828;4.700;2022-11-15T02:40:07;23.47;;;20.10;;
17151;SDS011;8691;50.828;4.700;2022-11-15T02:42:56;18.53;;;14.80;;
17151;SDS011;8691;50.828;4.700;2022-11-15T02:45:41;17.93;;;14.97;;
17151;SDS011;8691;50.828;4.700;2022-11-15T02:48:06;18.10;;;14.20;;
17151;SDS011;8691;50.828;4.700;2022-11-15T02:50:33;22.58;;;19.45;;
17151;SDS011;8691;50.828;4.700;2022-11-15T02:53:00;22.67;;;20.27;;
17151;SDS011;8691;50.828;4.700;2022-11-15T02:55:28;23.83;;;19.90;;
17151;SDS011;8691;50.828;4.700;2022-11-15T03:00:36;18.40;;;15.87;;
17151;SDS011;8691;50.828;4.700;2022-11-15T03:03:13;22.77;;;20.35;;
17151;SDS011;8691;50.828;4.700;2022-11-15T03:05:40;20.33;;;16.20;;
17151;SDS011;8691;50.828;4.700;2022-11-15T03:13:37;23.33;;;20.83;;
17151;SDS011;8691;50.828;4.700;2022-11-15T03:16:08;23.95;;;21.40;;
17151;SDS011;8691;50.828;4.700;2022-11-15T03:18:41;23.53;;;21.10;;
17151;SDS011;8691;50.828;4.700;2022-11-15T03:21:07;23.83;;;21.27;;
17151;SDS011;8691;50.828;4.700;2022-11-15T03:23:33;22.67;;;20.27;;
17151;SDS011;8691;50.828;4.700;2022-11-15T03:25:59;19.67;;;17.10;;
17151;SDS011;8691;50.828;4.700;2022-11-15T03:28:32;22.50;;;20.10;;
17151;SDS011;8691;50.828;4.700;2022-11-15T03:31:02;24.48;;;21.90;;
17151;SDS011;8691;50.828;4.700;2022-11-15T03:33:29;23.45;;;21.05;;
17151;SDS011;8691;50.828;4.700;2022-11-15T03:35:56;23.02;;;20.60;;
17151;SDS011;8691;50.828;4.700;2022-11-15T03:38:23;18.67;;;16.17;;
17151;SDS011;8691;50.828;4.700;2022-11-15T03:40:59;23.10;;;20.60;;
17151;SDS011;8691;50.828;4.700;2022-11-15T03:46:11;22.98;;;20.58;;
17151;SDS011;8691;50.828;4.700;2022-11-15T03:48:35;21.55;;;19.25;;
17151;SDS011;8691;50.828;4.700;2022-11-15T03:51:02;21.25;;;19.05;;
17151;SDS011;8691;50.828;4.700;2022-11-15T03:53:29;15.90;;;13.80;;
17151;SDS011;8691;50.828;4.700;2022-11-15T03:55:56;20.88;;;18.15;;
17151;SDS011;8691;50.828;4.700;2022-11-15T03:58:22;19.92;;;17.83;;
17151;SDS011;8691;50.828;4.700;2022-11-15T04:00:50;17.40;;;13.90;;
17151;SDS011;8691;50.828;4.700;2022-11-15T04:03:17;18.92;;;16.92;;
17151;SDS011;8691;50.828;4.700;2022-11-15T04:05:43;14.53;;;12.83;;
17151;SDS011;8691;50.828;4.700;2022-11-15T04:08:10;18.17;;;16.27;;
17151;SDS011;8691;50.828;4.700;2022-11-15T04:10:37;17.35;;;15.52;;
17151;SDS011;8691;50.828;4.700;2022-11-15T04:13:04;17.33;;;15.23;;
17151;SDS011;8691;50.828;4.700;2022-11-15T04:15:31;14.53;;;12.60;;
17151;SDS011;8691;50.828;4.700;2022-11-15T04:17:58;16.80;;;15.10;;
17151;SDS011;8691;50.828;4.700;2022-11-15T04:20:26;13.50;;;12.03;;
17151;SDS011;8691;50.828;4.700;2022-11-15T04:23:11;18.13;;;14.47;;
17151;SDS011;8691;50.828;4.700;2022-11-15T04:25:58;13.77;;;11.17;;
17151;SDS011;8691;50.828;4.700;2022-11-15T04:28:24;15.48;;;13.30;;
17151;SDS011;8691;50.828;4.700;2022-11-15T04:30:51;15.90;;;13.10;;
17151;SDS011;8691;50.828;4.700;2022-11-15T04:33:18;14.97;;;13.33;;
17151;SDS011;8691;50.828;4.700;2022-11-15T04:35:45;16.77;;;12.93;;
17151;SDS011;8691;50.828;4.700;2022-11-15T04:38:12;15.07;;;12.50;;
17151;SDS011;8691;50.828;4.700;2022-11-15T04:40:39;15.13;;;12.07;;
17151;SDS011;8691;50.828;4.700;2022-11-15T04:43:06;19.10;;;11.15;;
17151;SDS011;8691;50.828;4.700;2022-11-15T04:45:33;11.83;;;10.63;;
17151;SDS011;8691;50.828;4.700;2022-11-15T04:48:00;11.87;;;9.20;;
17151;SDS011;8691;50.828;4.700;2022-11-15T04:50:27;11.97;;;8.50;;
17151;SDS011;8691;50.828;4.700;2022-11-15T04:52:54;11.90;;;10.43;;
17151;SDS011;8691;50.828;4.700;2022-11-15T04:55:21;13.47;;;10.60;;
17151;SDS011;8691;50.828;4.700;2022-11-15T04:57:48;14.02;;;11.25;;
17151;SDS011;8691;50.828;4.700;2022-11-15T05:00:15;12.75;;;11.02;;
17151;SDS011;8691;50.828;4.700;2022-11-15T05:02:42;14.05;;;10.85;;
17151;SDS011;8691;50.828;4.700;2022-11-15T05:05:27;10.07;;;8.63;;
17151;SDS011;8691;50.828;4.700;2022-11-15T05:07:54;13.40;;;10.05;;
17151;SDS011;8691;50.828;4.700;2022-11-15T05:10:22;14.50;;;10.77;;
17151;SDS011;8691;50.828;4.700;2022-11-15T05:12:49;12.75;;;10.10;;
17151;SDS011;8691;50.828;4.700;2022-11-15T05:15:17;11.40;;;10.20;;
17151;SDS011;8691;50.828;4.700;2022-11-15T05:17:44;11.90;;;10.40;;
17151;SDS011;8691;50.828;4.700;2022-11-15T05:20:11;11.80;;;10.45;;
17151;SDS011;8691;50.828;4.700;2022-11-15T05:22:38;11.90;;;10.40;;
17151;SDS011;8691;50.828;4.700;2022-11-15T05:25:05;13.00;;;10.48;;
17151;SDS011;8691;50.828;4.700;2022-11-15T05:27:33;12.73;;;9.93;;
17151;SDS011;8691;50.828;4.700;2022-11-15T05:30:00;11.65;;;10.30;;
17151;SDS011;8691;50.828;4.700;2022-11-15T05:32:27;14.17;;;10.43;;
17151;SDS011;8691;50.828;4.700;2022-11-15T05:34:54;8.77;;;7.70;;
17151;SDS011;8691;50.828;4.700;2022-11-15T05:37:20;12.67;;;10.27;;
17151;SDS011;8691;50.828;4.700;2022-11-15T05:39:47;11.50;;;10.35;;
17151;SDS011;8691;50.828;4.700;2022-11-15T05:42:15;10.82;;;9.73;;
17151;SDS011;8691;50.828;4.700;2022-11-15T05:44:44;10.77;;;9.68;;
17151;SDS011;8691;50.828;4.700;2022-11-15T05:47:10;13.60;;;10.10;;
17151;SDS011;8691;50.828;4.700;2022-11-15T05:49:37;11.37;;;10.20;;
17151;SDS011;8691;50.828;4.700;2022-11-15T05:52:04;12.20;;;10.45;;
17151;SDS011;8691;50.828;4.700;2022-11-15T05:54:30;11.90;;;8.40;;
17151;SDS011;8691;50.828;4.700;2022-11-15T05:56:56;13.20;;;9.73;;
17151;SDS011;8691;50.828;4.700;2022-11-15T05:59:23;12.95;;;10.25;;
17151;SDS011;8691;50.828;4.700;2022-11-15T06:01:50;14.00;;;9.95;;
17151;SDS011;8691;50.828;4.700;2022-11-15T06:04:17;12.32;;;10.48;;
17151;SDS011;8691;50.828;4.700;2022-11-15T06:06:44;12.18;;;10.27;;
17151;SDS011;8691;50.828;4.700;2022-11-15T06:09:11;11.23;;;8.30;;
17151;SDS011;8691;50.828;4.700;2022-11-15T06:11:38;13.30;;;10.00;;
17151;SDS011;8691;50.828;4.700;2022-11-15T06:14:04;13.32;;;11.05;;
17151;SDS011;8691;50.828;4.700;2022-11-15T06:16:31;10.97;;;8.40;;
17151;SDS011;8691;50.828;4.700;2022-11-15T06:18:58;11.60;;;8.00;;
17151;SDS011;8691;50.828;4.700;2022-11-15T06:21:25;13.05;;;10.85;;
17151;SDS011;8691;50.828;4.700;2022-11-15T06:23:51;16.70;;;11.90;;
17151;SDS011;8691;50.828;4.700;2022-11-15T06:26:18;13.80;;;11.38;;
17151;SDS011;8691;50.828;4.700;2022-11-15T06:28:46;14.12;;;11.30;;
17151;SDS011;8691;50.828;4.700;2022-11-15T06:31:13;10.30;;;8.23;;
17151;SDS011;8691;50.828;4.700;2022-11-15T06:33:40;14.68;;;11.25;;
17151;SDS011;8691;50.828;4.700;2022-11-15T06:36:10;15.65;;;11.55;;
17151;SDS011;8691;50.828;4.700;2022-11-15T06:38:34;13.25;;;11.12;;
17151;SDS011;8691;50.828;4.700;2022-11-15T06:41:01;13.37;;;11.30;;
17151;SDS011;8691;50.828;4.700;2022-11-15T06:43:27;16.48;;;11.65;;
17151;SDS011;8691;50.828;4.700;2022-11-15T06:45:54;14.60;;;9.57;;
17151;SDS011;8691;50.828;4.700;2022-11-15T06:48:21;15.20;;;11.38;;
17151;SDS011;8691;50.828;4.700;2022-11-15T06:50:52;15.80;;;9.70;;
17151;SDS011;8691;50.828;4.700;2022-11-15T06:53:18;15.43;;;11.05;;
17151;SDS011;8691;50.828;4.700;2022-11-15T06:55:45;14.68;;;11.05;;
17151;SDS011;8691;50.828;4.700;2022-11-15T06:58:13;14.10;;;10.67;;
17151;SDS011;8691;50.828;4.700;2022-11-15T07:00:40;9.73;;;8.40;;
17151;SDS011;8691;50.828;4.700;2022-11-15T07:03:06;8.80;;;7.27;;
17151;SDS011;8691;50.828;4.700;2022-11-15T07:05:33;12.50;;;10.60;;
17151;SDS011;8691;50.828;4.700;2022-11-15T07:08:00;12.75;;;10.85;;
17151;SDS011;8691;50.828;4.700;2022-11-15T07:10:27;13.03;;;8.07;;
17151;SDS011;8691;50.828;4.700;2022-11-15T07:12:54;14.68;;;10.52;;
17151;SDS011;8691;50.828;4.700;2022-11-15T07:15:21;12.57;;;10.07;;
17151;SDS011;8691;50.828;4.700;2022-11-15T07:17:47;11.55;;;9.20;;
17151;SDS011;8691;50.828;4.700;2022-11-15T07:20:14;12.05;;;9.43;;
17151;SDS011;8691;50.828;4.700;2022-11-15T07:22:42;10.10;;;8.10;;
17151;SDS011;8691;50.828;4.700;2022-11-15T07:25:09;8.85;;;7.70;;
17151;SDS011;8691;50.828;4.700;2022-11-15T07:27:35;9.10;;;7.53;;
17151;SDS011;8691;50.828;4.700;2022-11-15T07:30:02;10.17;;;6.10;;
17151;SDS011;8691;50.828;4.700;2022-11-15T07:32:28;8.03;;;5.07;;
17151;SDS011;8691;50.828;4.700;2022-11-15T07:34:55;9.17;;;5.10;;
17151;SDS011;8691;50.828;4.700;2022-11-15T07:37:22;10.70;;;7.07;;
17151;SDS011;8691;50.828;4.700;2022-11-15T07:39:49;5.67;;;5.13;;
17151;SDS011;8691;50.828;4.700;2022-11-15T07:42:15;8.75;;;6.12;;
17151;SDS011;8691;50.828;4.700;2022-11-15T07:44:55;7.57;;;5.33;;
17151;SDS011;8691;50.828;4.700;2022-11-15T07:47:22;8.73;;;6.40;;
17151;SDS011;8691;50.828;4.700;2022-11-15T07:49:49;8.57;;;5.90;;
17151;SDS011;8691;50.828;4.700;2022-11-15T07:52:16;6.20;;;5.63;;
17151;SDS011;8691;50.828;4.700;2022-11-15T07:54:43;7.27;;;5.40;;
17151;SDS011;8691;50.828;4.700;2022-11-15T07:57:10;7.95;;;5.20;;
17151;SDS011;8691;50.828;4.700;2022-11-15T07:59:37;6.90;;;4.90;;
17151;SDS011;8691;50.828;4.700;2022-11-15T08:02:08;5.10;;;4.27;;
17151;SDS011;8691;50.828;4.700;2022-11-15T08:04:35;4.93;;;4.00;;
17151;SDS011;8691;50.828;4.700;2022-11-15T08:07:01;5.75;;;4.05;;
17151;SDS011;8691;50.828;4.700;2022-11-15T08:09:28;5.40;;;3.13;;
17151;SDS011;8691;50.828;4.700;2022-11-15T08:11:55;5.07;;;3.50;;
17151;SDS011;8691;50.828;4.700;2022-11-15T08:14:22;4.85;;;3.10;;
17151;SDS011;8691;50.828;4.700;2022-11-15T08:16:49;4.65;;;2.92;;
17151;SDS011;8691;50.828;4.700;2022-11-15T08:19:16;3.78;;;2.50;;
17151;SDS011;8691;50.828;4.700;2022-11-15T08:21:42;4.30;;;2.62;;
17151;SDS011;8691;50.828;4.700;2022-11-15T08:24:10;3.80;;;2.20;;
17151;SDS011;8691;50.828;4.700;2022-11-15T08:26:36;3.27;;;1.60;;
17151;SDS011;8691;50.828;4.700;2022-11-15T08:29:04;3.80;;;1.70;;
17151;SDS011;8691;50.828;4.700;2022-11-15T08:31:31;2.33;;;1.40;;
17151;SDS011;8691;50.828;4.700;2022-11-15T08:33:57;3.10;;;1.53;;
17151;SDS011;8691;50.828;4.700;2022-11-15T08:36:24;3.37;;;1.43;;
17151;SDS011;8691;50.828;4.700;2022-11-15T08:38:51;4.57;;;1.70;;
17151;SDS011;8691;50.828;4.700;2022-11-15T08:41:34;2.83;;;1.43;;
17151;SDS011;8691;50.828;4.700;2022-11-15T08:44:00;3.17;;;1.40;;
17151;SDS011;8691;50.828;4.700;2022-11-15T08:46:27;3.60;;;1.50;;
17151;SDS011;8691;50.828;4.700;2022-11-15T08:48:53;2.40;;;1.60;;
17151;SDS011;8691;50.828;4.700;2022-11-15T08:51:20;4.67;;;1.30;;
17151;SDS011;8691;50.828;4.700;2022-11-15T08:53:47;3.45;;;1.58;;
17151;SDS011;8691;50.828;4.700;2022-11-15T08:56:14;4.07;;;1.50;;
17151;SDS011;8691;50.828;4.700;2022-11-15T08:58:40;3.30;;;1.33;;
17151;SDS011;8691;50.828;4.700;2022-11-15T09:01:14;3.97;;;1.38;;
17151;SDS011;8691;50.828;4.700;2022-11-15T09:03:35;4.38;;;2.05;;
17151;SDS011;8691;50.828;4.700;2022-11-15T09:06:02;5.30;;;2.00;;
17151;SDS011;8691;50.828;4.700;2022-11-15T09:08:29;4.27;;;1.70;;
17151;SDS011;8691;50.828;4.700;2022-11-15T09:10:55;5.23;;;2.17;;
17151;SDS011;8691;50.828;4.700;2022-11-15T09:13:22;4.60;;;1.80;;
17151;SDS011;8691;50.828;4.700;2022-11-15T09:15:49;3.85;;;1.30;;
17151;SDS011;8691;50.828;4.700;2022-11-15T09:18:16;4.47;;;1.67;;
17151;SDS011;8691;50.828;4.700;2022-11-15T09:20:43;5.97;;;2.80;;
17151;SDS011;8691;50.828;4.700;2022-11-15T09:23:10;3.40;;;1.42;;
17151;SDS011;8691;50.828;4.700;2022-11-15T09:25:36;2.40;;;1.40;;
17151;SDS011;8691;50.828;4.700;2022-11-15T09:28:05;6.05;;;2.15;;
17151;SDS011;8691;50.828;4.700;2022-11-15T09:30:30;2.83;;;1.20;;
17151;SDS011;8691;50.828;4.700;2022-11-15T09:32:56;5.68;;;2.20;;
17151;SDS011;8691;50.828;4.700;2022-11-15T09:35:23;3.97;;;1.42;;
17151;SDS011;8691;50.828;4.700;2022-11-15T09:37:51;2.65;;;1.23;;
17151;SDS011;8691;50.828;4.700;2022-11-15T09:40:18;4.53;;;1.70;;
17151;SDS011;8691;50.828;4.700;2022-11-15T09:50:39;5.32;;;1.85;;
17151;SDS011;8691;50.828;4.700;2022-11-15T09:53:08;4.77;;;1.43;;
17151;SDS011;8691;50.828;4.700;2022-11-15T09:55:38;3.15;;;1.30;;
17151;SDS011;8691;50.828;4.700;2022-11-15T09:58:15;4.80;;;1.40;;
17151;SDS011;8691;50.828;4.700;2022-11-15T10:00:42;5.28;;;1.80;;
17151;SDS011;8691;50.828;4.700;2022-11-15T10:03:10;4.03;;;1.70;;
17151;SDS011;8691;50.828;4.700;2022-11-15T10:05:41;4.47;;;1.10;;
17151;SDS011;8691;50.828;4.700;2022-11-15T10:11:13;3.10;;;1.27;;
17151;SDS011;8691;50.828;4.700;2022-11-15T10:13:41;3.20;;;1.20;;
17151;SDS011;8691;50.828;4.700;2022-11-15T10:16:16;3.17;;;1.30;;
17151;SDS011;8691;50.828;4.700;2022-11-15T10:19:01;3.53;;;1.10;;
17151;SDS011;8691;50.828;4.700;2022-11-15T10:21:56;3.57;;;1.40;;
17151;SDS011;8691;50.828;4.700;2022-11-15T10:24:12;4.12;;;1.60;;
17151;SDS011;8691;50.828;4.700;2022-11-15T10:26:39;4.53;;;1.70;;
17151;SDS011;8691;50.828;4.700;2022-11-15T10:29:05;3.53;;;1.57;;
17151;SDS011;8691;50.828;4.700;2022-11-15T10:31:33;3.40;;;1.37;;
17151;SDS011;8691;50.828;4.700;2022-11-15T10:34:22;5.50;;;1.60;;
17151;SDS011;8691;50.828;4.700;2022-11-15T10:36:36;6.38;;;1.50;;
17151;SDS011;8691;50.828;4.700;2022-11-15T10:39:04;5.28;;;1.20;;
17151;SDS011;8691;50.828;4.700;2022-11-15T10:41:32;3.87;;;1.47;;
17151;SDS011;8691;50.828;4.700;2022-11-15T10:46:34;3.23;;;1.30;;
17151;SDS011;8691;50.828;4.700;2022-11-15T10:49:13;3.97;;;1.40;;
17151;SDS011;8691;50.828;4.700;2022-11-15T10:51:47;4.53;;;1.33;;
17151;SDS011;8691;50.828;4.700;2022-11-15T10:54:13;4.40;;;1.50;;
17151;SDS011;8691;50.828;4.700;2022-11-15T10:56:40;4.00;;;1.50;;
17151;SDS011;8691;50.828;4.700;2022-11-15T10:59:13;3.62;;;1.30;;
17151;SDS011;8691;50.828;4.700;2022-11-15T11:01:33;4.70;;;1.70;;
17151;SDS011;8691;50.828;4.700;2022-11-15T11:04:01;4.33;;;1.40;;
17151;SDS011;8691;50.828;4.700;2022-11-15T11:06:28;4.75;;;1.52;;
17151;SDS011;8691;50.828;4.700;2022-11-15T11:08:58;5.27;;;1.47;;
17151;SDS011;8691;50.828;4.700;2022-11-15T11:11:24;6.13;;;1.60;;
17151;SDS011;8691;50.828;4.700;2022-11-15T11:13:51;4.90;;;1.35;;
17151;SDS011;8691;50.828;4.700;2022-11-15T11:19:02;1.77;;;1.00;;
17151;SDS011;8691;50.828;4.700;2022-11-15T11:21:30;3.10;;;1.30;;
17151;SDS011;8691;50.828;4.700;2022-11-15T11:29:24;3.20;;;1.30;;
17151;SDS011;8691;50.828;4.700;2022-11-15T11:40:23;2.37;;;1.10;;
17151;SDS011;8691;50.828;4.700;2022-11-15T11:42:53;5.43;;;1.30;;
17151;SDS011;8691;50.828;4.700;2022-11-15T11:50:33;5.43;;;1.40;;
17151;SDS011;8691;50.828;4.700;2022-11-15T11:53:02;4.05;;;1.25;;
17151;SDS011;8691;50.828;4.700;2022-11-15T11:55:29;2.63;;;1.00;;
17151;SDS011;8691;50.828;4.700;2022-11-15T12:00:31;5.27;;;1.40;;
17151;SDS011;8691;50.828;4.700;2022-11-15T12:03:03;2.47;;;1.20;;
17151;SDS011;8691;50.828;4.700;2022-11-15T12:05:39;2.30;;;1.10;;
17151;SDS011;8691;50.828;4.700;2022-11-15T12:08:21;4.80;;;1.50;;
17151;SDS011;8691;50.828;4.700;2022-11-15T12:10:50;4.43;;;1.30;;
17151;SDS011;8691;50.828;4.700;2022-11-15T12:13:16;3.62;;;1.77;;
17151;SDS011;8691;50.828;4.700;2022-11-15T12:15:48;2.70;;;1.40;;
17151;SDS011;8691;50.828;4.700;2022-11-15T12:18:13;3.47;;;1.13;;
17151;SDS011;8691;50.828;4.700;2022-11-15T12:20:39;4.78;;;1.27;;
17151;SDS011;8691;50.828;4.700;2022-11-15T12:30:44;6.18;;;1.30;;
17151;SDS011;8691;50.828;4.700;2022-11-15T12:33:57;3.85;;;1.23;;
17151;SDS011;8691;50.828;4.700;2022-11-15T12:36:00;4.03;;;1.10;;
17151;SDS011;8691;50.828;4.700;2022-11-15T12:41:18;3.13;;;1.10;;
17151;SDS011;8691;50.828;4.700;2022-11-15T12:43:45;3.95;;;1.30;;
17151;SDS011;8691;50.828;4.700;2022-11-15T12:48:46;3.15;;;1.10;;
17151;SDS011;8691;50.828;4.700;2022-11-15T12:51:13;2.83;;;1.25;;
17151;SDS011;8691;50.828;4.700;2022-11-15T12:53:40;4.10;;;1.30;;
17151;SDS011;8691;50.828;4.700;2022-11-15T12:58:47;2.77;;;1.20;;
17151;SDS011;8691;50.828;4.700;2022-11-15T13:01:58;3.35;;;1.30;;
17151;SDS011;8691;50.828;4.700;2022-11-15T13:06:46;3.20;;;1.50;;
17151;SDS011;8691;50.828;4.700;2022-11-15T13:11:56;3.33;;;1.17;;
17151;SDS011;8691;50.828;4.700;2022-11-15T13:19:47;3.17;;;1.30;;
17151;SDS011;8691;50.828;4.700;2022-11-15T13:22:13;2.60;;;1.17;;
17151;SDS011;8691;50.828;4.700;2022-11-15T13:24:58;5.88;;;4.20;;
17151;SDS011;8691;50.828;4.700;2022-11-15T13:27:27;4.20;;;1.90;;
17151;SDS011;8691;50.828;4.700;2022-11-15T13:29:54;4.60;;;2.97;;
17151;SDS011;8691;50.828;4.700;2022-11-15T13:32:21;2.88;;;1.55;;
17151;SDS011;8691;50.828;4.700;2022-11-15T13:34:49;2.90;;;1.00;;
17151;SDS011;8691;50.828;4.700;2022-11-15T13:39:48;2.50;;;1.30;;
17151;SDS011;8691;50.828;4.700;2022-11-15T13:42:18;3.47;;;1.30;;
17151;SDS011;8691;50.828;4.700;2022-11-15T13:45:00;1.87;;;1.30;;
17151;SDS011;8691;50.828;4.700;2022-11-15T13:47:27;4.43;;;1.67;;
17151;SDS011;8691;50.828;4.700;2022-11-15T13:49:53;2.78;;;1.30;;
17151;SDS011;8691;50.828;4.700;2022-11-15T13:52:20;2.70;;;1.30;;
17151;SDS011;8691;50.828;4.700;2022-11-15T13:54:47;1.70;;;1.10;;
17151;SDS011;8691;50.828;4.700;2022-11-15T13:57:26;1.67;;;1.00;;
17151;SDS011;8691;50.828;4.700;2022-11-15T13:59:54;2.67;;;1.20;;
17151;SDS011;8691;50.828;4.700;2022-11-15T14:02:32;3.07;;;1.10;;
17151;SDS011;8691;50.828;4.700;2022-11-15T14:04:59;2.90;;;1.20;;
17151;SDS011;8691;50.828;4.700;2022-11-15T14:07:25;2.35;;;1.10;;
17151;SDS011;8691;50.828;4.700;2022-11-15T14:09:51;2.37;;;1.20;;
17151;SDS011;8691;50.828;4.700;2022-11-15T14:15:00;2.93;;;1.30;;
17151;SDS011;8691;50.828;4.700;2022-11-15T14:19:57;1.98;;;1.20;;
17151;SDS011;8691;50.828;4.700;2022-11-15T14:22:27;1.30;;;1.03;;
17151;SDS011;8691;50.828;4.700;2022-11-15T14:30:36;2.28;;;1.10;;
17151;SDS011;8691;50.828;4.700;2022-11-15T14:33:13;1.80;;;1.20;;
17151;SDS011;8691;50.828;4.700;2022-11-15T14:35:30;2.85;;;1.30;;
17151;SDS011;8691;50.828;4.700;2022-11-15T14:37:56;2.40;;;1.30;;
17151;SDS011;8691;50.828;4.700;2022-11-15T14:40:23;2.20;;;1.20;;
17151;SDS011;8691;50.828;4.700;2022-11-15T14:42:50;2.70;;;1.73;;
17151;SDS011;8691;50.828;4.700;2022-11-15T14:45:18;2.70;;;1.40;;
17151;SDS011;8691;50.828;4.700;2022-11-15T14:47:46;1.65;;;1.38;;
17151;SDS011;8691;50.828;4.700;2022-11-15T14:50:14;3.00;;;1.30;;
17151;SDS011;8691;50.828;4.700;2022-11-15T14:52:44;2.30;;;1.35;;
17151;SDS011;8691;50.828;4.700;2022-11-15T14:55:27;1.90;;;1.00;;
17151;SDS011;8691;50.828;4.700;2022-11-15T14:57:53;2.40;;;1.37;;
17151;SDS011;8691;50.828;4.700;2022-11-15T15:00:20;2.90;;;1.30;;
17151;SDS011;8691;50.828;4.700;2022-11-15T15:02:47;1.80;;;1.40;;
17151;SDS011;8691;50.828;4.700;2022-11-15T15:05:15;1.67;;;1.25;;
17151;SDS011;8691;50.828;4.700;2022-11-15T15:07:41;1.83;;;1.10;;
17151;SDS011;8691;50.828;4.700;2022-11-15T15:10:08;2.83;;;1.50;;
17151;SDS011;8691;50.828;4.700;2022-11-15T15:12:34;3.13;;;1.33;;
17151;SDS011;8691;50.828;4.700;2022-11-15T15:15:01;2.20;;;1.40;;
17151;SDS011;8691;50.828;4.700;2022-11-15T15:17:29;2.03;;;1.37;;
17151;SDS011;8691;50.828;4.700;2022-11-15T15:19:56;1.90;;;1.53;;
17151;SDS011;8691;50.828;4.700;2022-11-15T15:22:23;2.50;;;1.40;;
17151;SDS011;8691;50.828;4.700;2022-11-15T15:24:50;3.05;;;1.52;;
17151;SDS011;8691;50.828;4.700;2022-11-15T15:27:17;2.40;;;1.40;;
17151;SDS011;8691;50.828;4.700;2022-11-15T15:29:45;1.92;;;1.30;;
17151;SDS011;8691;50.828;4.700;2022-11-15T15:32:12;2.93;;;1.43;;
17151;SDS011;8691;50.828;4.700;2022-11-15T15:34:40;2.80;;;1.50;;
17151;SDS011;8691;50.828;4.700;2022-11-15T15:37:28;2.70;;;1.33;;
17151;SDS011;8691;50.828;4.700;2022-11-15T15:39:54;2.22;;;1.50;;
17151;SDS011;8691;50.828;4.700;2022-11-15T15:42:21;1.97;;;1.60;;
17151;SDS011;8691;50.828;4.700;2022-11-15T15:44:47;1.93;;;1.50;;
17151;SDS011;8691;50.828;4.700;2022-11-15T15:47:15;2.17;;;1.50;;
17151;SDS011;8691;50.828;4.700;2022-11-15T15:49:41;2.37;;;1.20;;
17151;SDS011;8691;50.828;4.700;2022-11-15T15:52:07;3.03;;;1.80;;
17151;SDS011;8691;50.828;4.700;2022-11-15T15:54:34;3.28;;;1.65;;
17151;SDS011;8691;50.828;4.700;2022-11-15T15:57:02;2.20;;;1.58;;
17151;SDS011;8691;50.828;4.700;2022-11-15T15:59:30;2.40;;;1.70;;
17151;SDS011;8691;50.828;4.700;2022-11-15T16:01:57;1.97;;;1.60;;
17151;SDS011;8691;50.828;4.700;2022-11-15T16:04:24;2.50;;;1.80;;
17151;SDS011;8691;50.828;4.700;2022-11-15T16:06:51;2.20;;;1.70;;
17151;SDS011;8691;50.828;4.700;2022-11-15T16:09:19;2.45;;;1.58;;
17151;SDS011;8691;50.828;4.700;2022-11-15T16:11:48;4.18;;;3.45;;
17151;SDS011;8691;50.828;4.700;2022-11-15T16:14:15;2.62;;;2.42;;
17151;SDS011;8691;50.828;4.700;2022-11-15T16:16:42;2.83;;;2.33;;
17151;SDS011;8691;50.828;4.700;2022-11-15T16:19:09;4.57;;;2.88;;
17151;SDS011;8691;50.828;4.700;2022-11-15T16:21:36;2.80;;;2.00;;
17151;SDS011;8691;50.828;4.700;2022-11-15T16:24:03;2.65;;;2.10;;
17151;SDS011;8691;50.828;4.700;2022-11-15T16:26:30;5.00;;;2.70;;
17151;SDS011;8691;50.828;4.700;2022-11-15T16:28:58;3.70;;;2.40;;
17151;SDS011;8691;50.828;4.700;2022-11-15T16:31:26;3.88;;;2.70;;
17151;SDS011;8691;50.828;4.700;2022-11-15T16:33:53;4.07;;;2.93;;
17151;SDS011;8691;50.828;4.700;2022-11-15T16:36:21;4.10;;;3.22;;